Time;durP1;ratioP1;P1;durP2;ratioP2;P2;SDS_P1;SDS_P2;PMS_P1;PMS_P2;Temp;Humidity;BMP_temperature;BMP_pressure;BME280_temperature;BME280_humidity;BME280_pressure;Samples;Min_cycle;Max_cycle;Signal;HPM_P1;HPM_P2
2022/05/31 00:01:56;;;;;;;;;;;10.40;99.90;;;;;;5022538;28;19932;-79
2022/05/31 00:04:23;;;;;;;;;;;10.40;99.90;;;;;;5022356;28;20655;-78
2022/05/31 00:06:50;;;;;;;;;;;10.30;99.90;;;;;;5020604;28;20404;-78
2022/05/31 00:09:16;;;;;;;;;;;10.30;99.90;;;;;;5022088;28;19928;-78
2022/05/31 00:11:44;;;;;;;;;;;10.30;99.90;;;;;;5020965;28;19931;-78
2022/05/31 00:14:12;;;;;;;;;;;10.40;99.90;;;;;;5024394;28;19929;-78
2022/05/31 00:16:39;;;;;;;;;;;9.80;99.90;;;;;;5024074;28;19998;-78
2022/05/31 00:19:06;;;;;;;;;;;10.30;99.90;;;;;;5021499;28;19929;-78
2022/05/31 00:21:38;;;;;;;;;;;10.20;99.90;;;;;;5019681;28;20345;-78
2022/05/31 00:24:05;;;;;;;;;;;10.20;99.90;;;;;;5020880;28;20889;-78
2022/05/31 00:26:31;;;;;;;;;;;10.10;99.90;;;;;;5019960;28;19945;-78
2022/05/31 00:28:58;;;;;;;;;;;10.10;99.90;;;;;;5019900;28;20344;-78
2022/05/31 00:31:26;;;;;;;;;;;10.00;99.90;;;;;;5019815;28;20355;-78
2022/05/31 00:33:53;;;;;;;;;;;10.00;99.90;;;;;;5023317;28;20004;-77
2022/05/31 00:36:20;;;;;;;;;;;10.00;99.90;;;;;;5018654;28;19931;-78
2022/05/31 00:38:47;;;;;;;;;;;10.00;99.90;;;;;;5019217;28;19921;-76
2022/05/31 00:41:27;;;;;;;;;;;10.00;99.90;;;;;;5017996;28;20279;-76
2022/05/31 00:43:57;;;;;;;;;;;10.00;99.90;;;;;;5020333;28;19983;-76
2022/05/31 00:46:25;;;;;;;;;;;10.00;99.90;;;;;;5020890;28;19936;-77
2022/05/31 00:48:56;;;;;;;;;;;10.00;99.90;;;;;;5020443;28;20281;-76
2022/05/31 00:51:23;;;;;;;;;;;9.90;99.90;;;;;;5020945;28;20047;-76
2022/05/31 00:53:52;;;;;;;;;;;9.90;99.90;;;;;;5020839;28;19929;-76
2022/05/31 00:56:19;;;;;;;;;;;9.80;99.90;;;;;;5022104;28;19998;-77
2022/05/31 00:58:48;;;;;;;;;;;9.80;99.90;;;;;;5026294;28;19952;-77
2022/05/31 01:01:16;;;;;;;;;;;9.80;99.90;;;;;;5027243;28;19968;-77
2022/05/31 01:03:44;;;;;;;;;;;9.70;99.90;;;;;;5022183;28;19929;-78
2022/05/31 01:06:13;;;;;;;;;;;9.70;99.90;;;;;;5021236;28;19935;-77
2022/05/31 01:08:41;;;;;;;;;;;9.70;99.90;;;;;;5018544;28;21170;-78
2022/05/31 01:11:40;;;;;;;;;;;9.70;99.90;;;;;;5018193;28;20039;-78
2022/05/31 01:14:28;;;;;;;;;;;9.70;99.90;;;;;;5017444;28;20015;-77
2022/05/31 01:17:22;;;;;;;;;;;9.70;99.90;;;;;;4998557;28;19925;-78
2022/05/31 01:20:23;;;;;;;;;;;9.70;99.90;;;;;;4995438;28;20051;-77
2022/05/31 01:22:59;;;;;;;;;;;9.70;99.90;;;;;;5017675;28;20041;-78
2022/05/31 01:25:36;;;;;;;;;;;9.70;99.90;;;;;;5017766;28;19936;-78
2022/05/31 01:28:08;;;;;;;;;;;9.70;99.90;;;;;;5033949;28;19936;-78
2022/05/31 01:30:36;;;;;;;;;;;9.70;99.90;;;;;;5046945;23;19935;-75
2022/05/31 01:33:05;;;;;;;;;;;9.70;99.90;;;;;;5025453;28;19936;-74
2022/05/31 01:35:34;;;;;;;;;;;9.70;99.90;;;;;;5024828;28;20416;-74
2022/05/31 01:38:02;;;;;;;;;;;9.70;99.90;;;;;;5025153;28;20864;-74
2022/05/31 01:40:37;;;;;;;;;;;9.70;99.90;;;;;;5025702;28;20381;-74
2022/05/31 01:43:04;;;;;;;;;;;9.70;99.90;;;;;;5025533;28;20416;-74
2022/05/31 01:45:34;;;;;;;;;;;9.70;99.90;;;;;;5026086;28;20457;-74
2022/05/31 01:48:02;;;;;;;;;;;9.70;99.90;;;;;;5025932;28;20031;-74
2022/05/31 01:50:29;;;;;;;;;;;9.70;99.90;;;;;;5012440;28;20015;-74
2022/05/31 01:52:57;;;;;;;;;;;9.80;99.90;;;;;;5024686;28;20405;-74
2022/05/31 01:55:25;;;;;;;;;;;9.70;99.90;;;;;;5019910;28;19928;-75
2022/05/31 01:57:55;;;;;;;;;;;9.60;99.90;;;;;;5003207;28;19935;-74
2022/05/31 02:00:22;;;;;;;;;;;9.60;99.90;;;;;;5014693;28;20297;-74
2022/05/31 02:02:51;;;;;;;;;;;9.60;99.90;;;;;;5005887;28;19928;-74
2022/05/31 02:05:19;;;;;;;;;;;9.70;99.90;;;;;;5007523;28;19929;-74
2022/05/31 02:07:53;;;;;;;;;;;9.70;99.90;;;;;;5023261;28;19933;-76
2022/05/31 02:10:21;;;;;;;;;;;9.70;99.90;;;;;;5022125;28;21070;-74
2022/05/31 02:12:49;;;;;;;;;;;9.70;99.90;;;;;;5022799;28;20439;-73
2022/05/31 02:15:45;;;;;;;;;;;9.80;99.90;;;;;;5007227;28;20029;-74
2022/05/31 02:18:17;;;;;;;;;;;9.80;99.90;;;;;;5028141;28;19978;-74
2022/05/31 02:21:03;;;;;;;;;;;9.90;99.90;;;;;;5023384;28;19936;-74
2022/05/31 02:23:30;;;;;;;;;;;9.90;99.90;;;;;;5023334;28;19956;-74
2022/05/31 02:25:58;;;;;;;;;;;9.90;99.90;;;;;;5025018;28;19932;-74
2022/05/31 02:28:24;;;;;;;;;;;10.00;99.90;;;;;;5009717;28;19935;-74
2022/05/31 02:30:51;;;;;;;;;;;10.00;99.90;;;;;;5027002;28;19971;-74
2022/05/31 02:33:18;;;;;;;;;;;11.10;99.90;;;;;;5027478;28;19929;-74
2022/05/31 02:35:45;;;;;;;;;;;10.00;99.90;;;;;;5028265;28;19936;-75
2022/05/31 02:38:12;;;;;;;;;;;10.00;99.90;;;;;;5019205;28;20020;-74
2022/05/31 02:40:38;;;;;;;;;;;10.00;99.90;;;;;;5018751;28;19929;-74
2022/05/31 02:43:07;;;;;;;;;;;10.00;99.90;;;;;;5029266;28;19929;-74
2022/05/31 02:45:34;;;;;;;;;;;10.00;99.90;;;;;;5011080;28;19936;-74
2022/05/31 02:48:01;;;;;;;;;;;10.00;99.90;;;;;;5020544;28;20401;-74
2022/05/31 02:50:28;;;;;;;;;;;9.90;99.90;;;;;;5003676;28;20319;-75
2022/05/31 02:52:54;;;;;;;;;;;9.90;99.90;;;;;;5019612;28;20318;-74
2022/05/31 02:55:21;;;;;;;;;;;9.90;99.90;;;;;;5029229;28;20044;-74
2022/05/31 02:58:21;;;;;;;;;;;9.90;99.90;;;;;;5027185;28;20084;-75
2022/05/31 03:01:18;;;;;;;;;;;9.80;99.90;;;;;;5030950;28;19999;-74
2022/05/31 03:04:05;;;;;;;;;;;9.80;99.90;;;;;;5025093;28;20506;-74
2022/05/31 03:06:50;;;;;;;;;;;9.80;99.90;;;;;;5025149;28;19944;-76
2022/05/31 03:09:18;;;;;;;;;;;9.80;99.90;;;;;;5021735;28;19929;-76
2022/05/31 03:11:47;;;;;;;;;;;9.80;99.90;;;;;;5021163;28;19929;-75
2022/05/31 03:14:17;;;;;;;;;;;9.90;99.90;;;;;;5024023;28;19929;-76
2022/05/31 03:16:45;;;;;;;;;;;10.10;99.90;;;;;;5023629;28;19928;-76
2022/05/31 03:19:16;;;;;;;;;;;9.90;99.90;;;;;;5026764;28;19929;-75
2022/05/31 03:21:44;;;;;;;;;;;10.00;99.90;;;;;;5023433;28;20018;-75
2022/05/31 03:24:12;;;;;;;;;;;10.00;99.90;;;;;;5026386;28;20397;-76
2022/05/31 03:26:40;;;;;;;;;;;10.00;99.90;;;;;;5006778;28;19928;-76
2022/05/31 03:29:06;;;;;;;;;;;10.10;99.90;;;;;;5033381;28;19972;-76
2022/05/31 03:31:36;;;;;;;;;;;10.10;99.90;;;;;;5028351;28;19929;-79
2022/05/31 03:34:02;;;;;;;;;;;10.10;99.90;;;;;;5030305;28;20324;-73
2022/05/31 03:36:29;;;;;;;;;;;10.10;99.90;;;;;;5025333;28;19925;-73
2022/05/31 03:39:04;;;;;;;;;;;10.10;99.90;;;;;;5008629;28;20023;-73
2022/05/31 03:41:33;;;;;;;;;;;10.30;99.90;;;;;;5017838;28;20421;-74
2022/05/31 03:44:00;;;;;;;;;;;10.70;99.90;;;;;;5021127;28;20321;-74
2022/05/31 03:46:47;;;;;;;;;;;10.80;99.90;;;;;;5025040;28;20293;-74
2022/05/31 03:49:28;;;;;;;;;;;11.10;99.90;;;;;;5009021;28;19932;-74
2022/05/31 03:52:02;;;;;;;;;;;11.20;99.90;;;;;;5011260;28;20288;-74
2022/05/31 03:54:35;;;;;;;;;;;11.10;99.90;;;;;;5026901;28;19924;-74
2022/05/31 03:57:25;;;;;;;;;;;11.10;99.90;;;;;;5021957;28;19928;-74
2022/05/31 04:00:13;;;;;;;;;;;11.00;99.90;;;;;;5029477;28;19987;-74
2022/05/31 04:02:59;;;;;;;;;;;10.90;99.90;;;;;;5011164;28;20310;-74
2022/05/31 04:05:26;;;;;;;;;;;10.90;99.90;;;;;;5006281;28;20016;-74
2022/05/31 04:07:53;;;;;;;;;;;10.90;99.90;;;;;;5005882;28;19932;-74
2022/05/31 04:10:21;;;;;;;;;;;10.80;99.90;;;;;;5005631;28;20484;-74
2022/05/31 04:12:48;;;;;;;;;;;10.80;99.90;;;;;;5027592;28;19964;-74
2022/05/31 04:15:50;;;;;;;;;;;10.80;99.90;;;;;;5027407;28;19970;-74
2022/05/31 04:18:20;;;;;;;;;;;10.80;99.90;;;;;;5010400;28;19932;-74
2022/05/31 04:20:47;;;;;;;;;;;10.80;99.90;;;;;;5025781;28;20501;-74
2022/05/31 04:26:17;;;;;;;;;;;10.90;99.90;;;;;;5022908;28;20067;-74
2022/05/31 04:29:04;;;;;;;;;;;10.90;99.90;;;;;;5027185;28;19960;-74
2022/05/31 04:32:06;;;;;;;;;;;10.90;99.90;;;;;;5024675;28;19925;-74
2022/05/31 04:34:54;;;;;;;;;;;10.90;99.90;;;;;;5018702;28;19925;-74
2022/05/31 04:37:22;;;;;;;;;;;10.90;99.90;;;;;;5009625;28;20008;-74
2022/05/31 04:40:10;;;;;;;;;;;10.90;99.90;;;;;;5008751;28;19952;-74
2022/05/31 04:43:07;;;;;;;;;;;11.00;99.90;;;;;;5009125;28;19925;-74
2022/05/31 04:46:09;;;;;;;;;;;10.90;99.90;;;;;;5026515;28;20004;-74
2022/05/31 04:48:41;;;;;;;;;;;10.90;99.90;;;;;;5009047;28;19925;-73
2022/05/31 04:51:10;;;;;;;;;;;10.90;99.90;;;;;;5001759;28;19929;-74
2022/05/31 04:53:49;;;;;;;;;;;11.40;99.90;;;;;;5015365;28;19925;-73
2022/05/31 04:56:34;;;;;;;;;;;11.00;99.90;;;;;;5024751;28;19947;-73
2022/05/31 04:59:06;;;;;;;;;;;11.00;99.90;;;;;;5023141;28;20452;-74
2022/05/31 05:01:34;;;;;;;;;;;11.00;99.90;;;;;;5004404;28;20555;-74
2022/05/31 05:04:03;;;;;;;;;;;11.00;99.90;;;;;;5024612;28;20318;-73
2022/05/31 05:06:34;;;;;;;;;;;11.00;99.90;;;;;;5016222;28;19971;-73
2022/05/31 05:09:01;;;;;;;;;;;11.00;99.90;;;;;;5023248;28;19951;-74
2022/05/31 05:11:28;;;;;;;;;;;11.00;99.90;;;;;;5005879;28;20309;-74
2022/05/31 05:14:00;;;;;;;;;;;11.00;99.90;;;;;;5025019;28;20004;-74
2022/05/31 05:16:27;;;;;;;;;;;11.00;99.90;;;;;;5025990;28;19925;-74
2022/05/31 05:18:55;;;;;;;;;;;11.20;99.90;;;;;;5008326;28;20011;-74
2022/05/31 05:21:22;;;;;;;;;;;11.20;99.90;;;;;;5004617;28;19921;-74
2022/05/31 05:23:53;;;;;;;;;;;11.30;99.90;;;;;;5025026;28;20435;-73
2022/05/31 05:26:29;;;;;;;;;;;11.50;99.90;;;;;;5003849;28;19925;-74
2022/05/31 05:32:06;;;;;;;;;;;11.90;99.90;;;;;;5022516;28;20417;-73
2022/05/31 05:34:56;;;;;;;;;;;12.10;99.90;;;;;;5024895;28;19925;-73
2022/05/31 05:37:23;;;;;;;;;;;12.30;99.90;;;;;;5021088;28;20047;-73
2022/05/31 05:39:51;;;;;;;;;;;12.50;99.90;;;;;;5018968;28;20325;-74
2022/05/31 05:42:45;;;;;;;;;;;12.70;99.90;;;;;;5020370;28;19932;-74
2022/05/31 05:45:32;;;;;;;;;;;13.10;99.90;;;;;;5022785;28;20417;-74
2022/05/31 05:47:59;;;;;;;;;;;13.90;99.90;;;;;;5008874;28;20003;-74
2022/05/31 05:50:26;;;;;;;;;;;14.30;99.90;;;;;;5007120;28;20438;-73
2022/05/31 05:52:55;;;;;;;;;;;14.40;99.90;;;;;;5025777;28;19932;-74
2022/05/31 05:55:55;;;;;;;;;;;14.40;99.90;;;;;;4988496;28;20428;-74
2022/05/31 05:58:41;;;;;;;;;;;14.30;99.90;;;;;;5014549;28;19932;-73
2022/05/31 06:01:36;;;;;;;;;;;14.30;99.90;;;;;;4982617;28;19925;-74
2022/05/31 06:04:14;;;;;;;;;;;14.10;99.90;;;;;;5024616;28;20457;-74
2022/05/31 06:06:42;;;;;;;;;;;14.00;99.90;;;;;;5026365;28;19948;-74
2022/05/31 06:11:53;;;;;;;;;;;13.70;99.90;;;;;;5142137;22;19925;-73
2022/05/31 06:14:26;;;;;;;;;;;14.90;99.90;;;;;;5029703;28;20006;-73
2022/05/31 06:16:53;;;;;;;;;;;13.20;99.90;;;;;;5027352;28;20040;-73
2022/05/31 06:19:22;;;;;;;;;;;13.20;99.90;;;;;;5032229;28;19931;-73
2022/05/31 06:21:50;;;;;;;;;;;13.80;99.90;;;;;;5042076;28;19931;-73
2022/05/31 06:24:28;;;;;;;;;;;14.50;99.90;;;;;;5050439;22;19932;-76
2022/05/31 06:27:00;;;;;;;;;;;14.50;99.90;;;;;;5022498;28;19921;-77
2022/05/31 06:29:29;;;;;;;;;;;14.20;99.90;;;;;;5042182;28;19924;-77
2022/05/31 06:31:56;;;;;;;;;;;13.90;99.90;;;;;;5013013;28;19928;-79
2022/05/31 06:34:37;;;;;;;;;;;13.70;99.90;;;;;;5014188;28;19922;-80
2022/05/31 06:37:36;;;;;;;;;;;13.40;99.90;;;;;;5005906;28;19921;-80
2022/05/31 06:40:03;;;;;;;;;;;13.10;99.90;;;;;;5016851;28;19929;-79
2022/05/31 06:43:10;;;;;;;;;;;12.90;99.90;;;;;;4956521;29;19922;-75
2022/05/31 06:45:56;;;;;;;;;;;12.70;99.90;;;;;;4954332;29;19932;-77
2022/05/31 06:48:41;;;;;;;;;;;12.50;99.90;;;;;;5011454;28;19929;-78
2022/05/31 06:57:42;;;;;;;;;;;12.20;99.90;;;;;;5025035;28;19985;-77
2022/05/31 07:00:19;;;;;;;;;;;12.30;99.90;;;;;;5018057;28;20017;-77
2022/05/31 07:02:47;;;;;;;;;;;12.30;99.90;;;;;;5000298;28;19925;-77
2022/05/31 07:05:14;;;;;;;;;;;12.30;99.90;;;;;;5020594;28;20047;-77
2022/05/31 07:07:41;;;;;;;;;;;12.30;99.90;;;;;;5011781;28;19932;-77
2022/05/31 07:10:29;;;;;;;;;;;12.30;99.90;;;;;;5018733;28;19928;-79
2022/05/31 07:13:17;;;;;;;;;;;12.30;99.90;;;;;;5032771;28;20013;-77
2022/05/31 07:16:12;;;;;;;;;;;12.30;99.90;;;;;;5020935;28;19924;-81
2022/05/31 07:18:45;;;;;;;;;;;12.20;99.90;;;;;;5040240;28;19993;-80
2022/05/31 07:21:27;;;;;;;;;;;12.30;99.90;;;;;;5022894;28;19921;-81
2022/05/31 07:23:54;;;;;;;;;;;12.20;99.90;;;;;;5022478;28;19944;-80
2022/05/31 07:26:22;;;;;;;;;;;12.10;99.90;;;;;;5023334;28;19983;-83
2022/05/31 07:28:53;;;;;;;;;;;;;;;;;;5023822;28;19940;-82
2022/05/31 07:31:21;;;;;;;;;;;11.90;99.90;;;;;;5023770;28;19931;-82
2022/05/31 07:33:59;;;;;;;;;;;11.80;99.90;;;;;;5021644;28;19987;-80
2022/05/31 07:36:27;;;;;;;;;;;11.70;99.90;;;;;;5027703;28;19948;-78
2022/05/31 07:39:10;;;;;;;;;;;11.40;99.90;;;;;;5021285;28;19925;-79
2022/05/31 07:41:38;;;;;;;;;;;11.40;99.90;;;;;;5021983;28;19925;-81
2022/05/31 07:44:06;;;;;;;;;;;11.30;99.90;;;;;;5019607;28;19921;-80
2022/05/31 07:46:34;;;;;;;;;;;11.20;99.90;;;;;;5029425;28;19975;-80
2022/05/31 07:49:02;;;;;;;;;;;11.40;99.90;;;;;;5024840;28;19924;-80
2022/05/31 07:51:49;;;;;;;;;;;11.40;99.90;;;;;;5028602;28;19937;-81
2022/05/31 07:54:34;;;;;;;;;;;11.60;99.90;;;;;;5030693;28;19940;-80
2022/05/31 08:00:21;;;;;;;;;;;12.10;99.90;;;;;;5007323;28;19925;-80
2022/05/31 08:02:50;;;;;;;;;;;12.80;99.90;;;;;;5040469;28;20174;-81
2022/05/31 08:05:16;;;;;;;;;;;12.90;99.90;;;;;;5013000;28;19921;-81
2022/05/31 08:07:43;;;;;;;;;;;13.40;99.90;;;;;;5014460;28;19929;-81
2022/05/31 08:10:13;;;;;;;;;;;14.00;99.90;;;;;;5018921;28;19921;-81
2022/05/31 08:12:40;;;;;;;;;;;14.60;99.90;;;;;;5035300;28;19943;-81
2022/05/31 08:15:07;;;;;;;;;;;15.00;99.90;;;;;;5005681;28;19929;-81
2022/05/31 08:17:34;;;;;;;;;;;15.10;99.90;;;;;;5018288;28;20597;-80
2022/05/31 08:20:03;;;;;;;;;;;15.10;99.90;;;;;;5016494;28;20373;-80
2022/05/31 08:22:30;;;;;;;;;;;15.00;99.90;;;;;;5028086;28;19944;-77
2022/05/31 08:24:57;;;;;;;;;;;14.90;99.90;;;;;;5015268;28;19971;-77
2022/05/31 08:27:25;;;;;;;;;;;15.10;99.90;;;;;;5016980;28;19936;-77
2022/05/31 08:29:52;;;;;;;;;;;15.70;99.90;;;;;;5014901;28;19924;-77
2022/05/31 08:32:22;;;;;;;;;;;16.70;99.90;;;;;;5030469;28;19921;-78
2022/05/31 08:34:49;;;;;;;;;;;18.10;99.90;;;;;;5011691;28;19921;-78
2022/05/31 08:37:17;;;;;;;;;;;20.80;99.90;;;;;;5006810;28;19944;-77
2022/05/31 08:39:45;;;;;;;27.77;9.97;;;20.70;99.90;;;;;;5007182;28;20054;-78
2022/05/31 08:42:17;;;;;;;18.13;6.93;;;21.90;99.90;;;;;;5013897;28;20662;-77
2022/05/31 08:44:53;;;;;;;13.25;6.53;;;22.60;99.90;;;;;;5018931;28;20268;-78
2022/05/31 08:47:31;;;;;;;15.75;6.68;;;23.10;99.90;;;;;;5017992;28;20231;-76
2022/05/31 08:53:13;;;;;;;13.75;6.13;;;23.90;99.90;;;;;;5020767;28;20242;-79
2022/05/31 08:58:36;;;;;;;17.75;5.90;;;23.80;99.90;;;;;;5025330;28;20209;-77
2022/05/31 09:01:05;;;;;;;15.03;5.80;;;23.30;99.90;;;;;;5033752;28;20340;-77
2022/05/31 09:03:41;;;;;;;11.53;5.03;;;23.10;99.90;;;;;;5014484;28;20607;-76
2022/05/31 09:06:10;;;;;;;8.23;4.60;;;22.70;99.90;;;;;;5011970;28;20214;-77
2022/05/31 09:08:42;;;;;;;7.47;4.17;;;22.50;99.90;;;;;;5006753;28;20221;-76
2022/05/31 09:11:17;;;;;;;9.60;4.53;;;22.40;99.90;;;;;;5012869;28;20231;-77
2022/05/31 09:13:50;;;;;;;6.32;3.63;;;22.40;99.90;;;;;;5012340;28;20217;-80
2022/05/31 09:16:32;;;;;;;5.73;3.40;;;22.80;99.90;;;;;;5011442;28;20284;-80
2022/05/31 09:19:02;;;;;;;8.77;3.70;;;23.10;99.90;;;;;;5019940;28;20206;-77
2022/05/31 09:21:37;;;;;;;7.93;3.70;;;23.10;99.90;;;;;;5009954;28;20208;-76
2022/05/31 09:24:10;;;;;;;9.10;4.33;;;23.10;99.90;;;;;;4995945;28;20604;-79
2022/05/31 09:26:51;;;;;;;8.37;3.70;;;22.70;99.90;;;;;;5019178;28;20571;-82
2022/05/31 09:29:22;;;;;;;6.30;3.90;;;22.70;99.90;;;;;;5008833;28;20323;-79
2022/05/31 09:32:02;;;;;;;8.63;3.90;;;22.80;99.90;;;;;;5024792;28;20199;-76
2022/05/31 09:34:49;;;;;;;9.37;4.50;;;22.80;99.90;;;;;;5020197;28;20208;-76
2022/05/31 09:37:34;;;;;;;9.73;4.20;;;22.30;99.90;;;;;;5006330;28;20242;-77
2022/05/31 09:40:19;;;;;;;7.03;4.30;;;22.30;99.90;;;;;;5009201;28;20241;-77
2022/05/31 09:42:57;;;;;;;6.50;4.10;;;22.50;99.90;;;;;;5008078;28;20222;-77
2022/05/31 09:45:25;;;;;;;8.10;4.40;;;22.90;99.90;;;;;;5008312;28;20205;-76
2022/05/31 09:47:53;;;;;;;10.17;4.33;;;22.80;99.90;;;;;;5008942;28;20243;-77
2022/05/31 09:50:25;;;;;;;9.40;4.70;;;22.50;99.90;;;;;;5008736;28;20747;-75
2022/05/31 09:52:56;;;;;;;8.23;4.37;;;22.10;99.90;;;;;;5013998;28;20214;-79
2022/05/31 09:58:39;;;;;;;8.43;4.50;;;22.30;99.90;;;;;;5022637;28;20232;-79
2022/05/31 10:01:27;;;;;;;13.93;5.20;;;22.10;99.90;;;;;;5025681;28;20736;-79
2022/05/31 10:04:27;;;;;;;6.63;4.00;;;22.10;99.90;;;;;;5019237;28;20242;-81
2022/05/31 10:06:58;;;;;;;8.50;4.40;;;22.10;99.90;;;;;;5015799;28;20214;-80
2022/05/31 10:09:31;;;;;;;6.47;3.97;;;22.00;99.90;;;;;;5025186;28;20237;-81
2022/05/31 10:12:26;;;;;;;7.27;4.13;;;21.90;99.90;;;;;;5032310;28;20216;-80
2022/05/31 10:14:55;;;;;;;8.53;4.43;;;21.60;99.90;;;;;;4998436;28;20224;-80
2022/05/31 10:17:38;;;;;;;12.10;4.40;;;21.50;99.90;;;;;;5010999;28;20217;-80
2022/05/31 10:20:13;;;;;;;9.90;4.23;;;21.40;99.90;;;;;;5006273;28;20244;-80
2022/05/31 10:22:49;;;;;;;7.23;4.27;;;21.20;99.90;;;;;;5012280;28;20238;-79
2022/05/31 10:25:40;;;;;;;12.53;5.07;;;20.70;99.90;;;;;;5023414;28;20249;-78
2022/05/31 10:28:33;;;;;;;10.83;4.50;;;20.10;99.90;;;;;;5023042;28;20228;-78
2022/05/31 10:31:06;;;;;;;9.80;4.53;;;19.70;99.90;;;;;;5004516;28;20244;-78
2022/05/31 10:33:40;;;;;;;10.23;4.60;;;19.40;99.90;;;;;;5011797;28;20217;-78
2022/05/31 10:36:14;;;;;;;8.40;4.57;;;19.00;99.90;;;;;;5025057;28;20220;-78
2022/05/31 10:38:44;;;;;;;9.73;4.50;;;19.10;99.90;;;;;;5010406;28;20213;-79
2022/05/31 10:41:23;;;;;;;9.27;4.43;;;19.00;99.90;;;;;;5013766;28;20336;-78
2022/05/31 10:43:58;;;;;;;11.97;4.37;;;19.00;99.90;;;;;;5011085;28;20229;-79
2022/05/31 10:46:27;;;;;;;;;;;19.00;99.90;;;;;;5011667;28;20220;-79
2022/05/31 10:48:54;;;;;;;;;;;;;;;;;;5018446;28;20007;-78
2022/05/31 10:51:28;;;;;;;;;;;19.30;99.90;;;;;;5015008;28;20280;-78
2022/05/31 10:54:06;;;;;;;;;;;19.70;99.90;;;;;;5014457;28;19926;-78
2022/05/31 10:56:36;;;;;;;;;;;20.10;99.90;;;;;;5023431;28;19928;-79
2022/05/31 10:59:07;;;;;;;;;;;20.80;99.90;;;;;;5002308;28;19932;-78
2022/05/31 11:01:47;;;;;;;;;;;20.80;99.90;;;;;;5014881;28;19946;-78
2022/05/31 11:04:27;;;;;;;;;;;21.10;99.90;;;;;;5027266;28;19947;-78
2022/05/31 11:06:58;;;;;;;;;;;21.20;99.90;;;;;;5017014;28;19921;-78
2022/05/31 11:12:28;;;;;;;6.93;3.50;;;21.10;99.90;;;;;;5021712;28;19928;-78
2022/05/31 11:15:06;;;;;;;8.33;3.57;;;21.10;99.90;;;;;;5005614;28;20214;-79
2022/05/31 11:18:05;;;;;;;7.20;3.50;;;21.00;99.90;;;;;;5011684;28;20214;-78
2022/05/31 11:20:39;;;;;;;7.57;3.30;;;20.80;99.90;;;;;;5025842;28;20246;-78
2022/05/31 11:23:21;;;;;;;6.43;3.53;;;20.60;99.90;;;;;;5003772;28;20236;-79
2022/05/31 11:26:07;;;;;;;8.80;3.40;;;20.30;99.90;;;;;;5011621;28;20804;-78
2022/05/31 11:28:59;;;;;;;9.53;3.73;;;20.20;99.90;;;;;;5018972;28;20678;-78
2022/05/31 11:31:42;;;;;;;8.63;3.80;;;20.00;99.90;;;;;;5005916;28;20325;-78
2022/05/31 11:34:24;;;;;;;6.83;3.50;;;20.00;99.90;;;;;;5010727;28;20593;-80
2022/05/31 11:37:08;;;;;;;6.97;3.30;;;20.10;99.90;;;;;;4995398;28;20253;-79
2022/05/31 11:39:53;;;;;;;6.43;3.57;;;20.10;99.90;;;;;;5023421;28;20337;-79
2022/05/31 11:42:34;;;;;;;9.67;3.90;;;20.30;99.90;;;;;;5010344;28;20206;-80
2022/05/31 11:45:11;;;;;;;8.17;4.30;;;20.40;99.90;;;;;;4996794;28;20828;-79
2022/05/31 11:48:02;;;;;;;8.70;4.23;;;20.40;99.90;;;;;;5002532;28;20285;-79
2022/05/31 11:50:38;;;;;;;9.77;4.33;;;20.60;99.90;;;;;;5012782;28;20285;-80
2022/05/31 11:53:28;;;;;;;9.30;4.43;;;21.00;99.90;;;;;;5013826;28;20208;-80
2022/05/31 11:56:03;;;;;;;8.83;4.03;;;21.40;99.90;;;;;;5014646;28;20221;-80
2022/05/31 11:58:46;;;;;;;9.97;3.80;;;21.80;99.90;;;;;;5013697;28;20217;-80
2022/05/31 12:01:19;;;;;;;8.87;3.73;;;22.10;99.90;;;;;;5012967;28;20250;-79
2022/05/31 12:03:59;;;;;;;11.17;3.97;;;22.10;99.90;;;;;;5015358;28;20211;-79
2022/05/31 12:06:34;;;;;;;8.20;3.40;;;22.30;99.90;;;;;;5013395;28;20260;-79
2022/05/31 12:09:09;;;;;;;7.70;3.33;;;22.80;99.60;;;;;;5015325;28;20198;-81
2022/05/31 12:11:41;;;;;;;5.60;3.17;;;22.80;99.50;;;;;;5017941;28;20194;-82
2022/05/31 12:14:13;;;;;;;8.50;3.63;;;22.70;98.50;;;;;;5018707;28;20230;-83
2022/05/31 12:16:41;;;;;;;6.90;3.40;;;22.80;98.10;;;;;;5018226;28;20209;-83
2022/05/31 12:19:21;;;;;;;7.00;3.27;;;22.90;97.30;;;;;;5018745;28;20207;-82
2022/05/31 12:21:52;;;;;;;5.93;3.30;;;22.90;97.00;;;;;;5018023;28;20269;-82
2022/05/31 12:24:26;;;;;;;7.70;3.20;;;22.90;97.50;;;;;;5018093;28;20237;-81
2022/05/31 12:26:56;;;;;;;7.87;3.50;;;22.80;96.40;;;;;;5015759;28;20331;-81
2022/05/31 12:29:29;;;;;;;7.83;3.93;;;22.40;95.80;;;;;;5017189;28;20648;-81
2022/05/31 12:32:42;;;;;;;7.67;3.70;;;22.30;96.00;;;;;;5018058;28;20232;-81
2022/05/31 12:35:54;;;;;;;6.87;3.53;;;22.10;96.00;;;;;;5016633;28;20193;-83
2022/05/31 12:38:21;;;;;;;6.90;3.30;;;22.00;96.60;;;;;;5019656;28;20202;-82
2022/05/31 12:40:52;;;;;;;7.70;3.40;;;21.90;95.90;;;;;;5018254;28;20230;-83
2022/05/31 12:43:48;;;;;;;8.20;3.50;;;21.80;95.20;;;;;;5013090;28;20207;-78
2022/05/31 12:46:36;;;;;;;5.93;3.40;;;21.70;95.20;;;;;;5019233;28;20219;-80
2022/05/31 12:49:08;;;;;;;8.13;3.23;;;21.50;95.50;;;;;;5016363;28;20193;-80
2022/05/31 12:51:36;;;;;;;7.90;3.90;;;21.50;95.40;;;;;;5019177;28;20216;-81
2022/05/31 12:54:13;;;;;;;7.83;3.63;;;21.80;95.70;;;;;;5017775;28;20240;-81
2022/05/31 12:56:56;;;;;;;8.80;4.23;;;22.10;95.50;;;;;;5019750;28;20229;-80
2022/05/31 12:59:48;;;;;;;9.67;3.67;;;22.10;94.90;;;;;;4998910;28;20280;-80
2022/05/31 13:02:32;;;;;;;7.00;3.67;;;21.80;94.60;;;;;;5015077;28;20659;-80
2022/05/31 13:05:06;;;;;;;5.80;3.47;;;21.60;94.50;;;;;;5014594;28;20242;-80
2022/05/31 13:07:46;;;;;;;9.10;3.87;;;21.50;94.50;;;;;;5030520;28;20216;-80
2022/05/31 13:10:34;;;;;;;7.87;3.50;;;21.50;94.90;;;;;;5007908;28;20326;-80
2022/05/31 13:21:19;;;;;;;6.80;3.43;;;20.90;95.20;;;;;;5014792;28;20222;-80
2022/05/31 13:23:48;;;;;;;6.70;3.43;;;20.70;94.90;;;;;;5012066;28;20227;-80
2022/05/31 13:26:18;;;;;;;9.17;3.63;;;20.60;94.90;;;;;;5005384;28;20235;-81
2022/05/31 13:28:58;;;;;;;7.67;3.50;;;20.50;95.20;;;;;;5014553;28;20249;-80
2022/05/31 13:31:28;;;;;;;7.87;3.73;;;20.40;95.40;;;;;;5013868;28;20217;-80
2022/05/31 13:33:59;;;;;;;9.43;3.80;;;20.40;95.90;;;;;;5018683;28;20201;-80
2022/05/31 13:36:26;;;;;;;;;;;20.30;96.60;;;;;;5019524;28;20053;-80
2022/05/31 13:38:57;;;;;;;;;;;20.00;97.80;;;;;;5017559;28;19963;-80
2022/05/31 13:41:24;;;;;;;;;;;19.20;95.90;;;;;;5016845;28;19934;-81
2022/05/31 13:43:52;;;;;;;;;;;18.40;97.80;;;;;;5012996;28;19925;-79
2022/05/31 13:46:23;;;;;;;;;;;17.90;99.90;;;;;;5006575;28;19921;-79
2022/05/31 13:48:52;;;;;;;;;;;17.60;99.90;;;;;;4999485;28;20025;-78
2022/05/31 13:51:20;;;;;;;;;;;17.60;99.90;;;;;;5009161;28;20381;-79
2022/05/31 13:53:47;;;;;;;;;;;17.70;99.90;;;;;;5013361;28;20301;-79
2022/05/31 13:56:16;;;;;;;;;;;17.90;99.90;;;;;;4999506;28;20016;-79
2022/05/31 13:58:49;;;;;;;;;;;18.50;99.90;;;;;;5010579;28;19971;-79
2022/05/31 14:01:22;;;;;;;;;;;18.50;99.90;;;;;;5005490;28;19925;-79
2022/05/31 14:03:50;;;;;;;;;;;19.00;99.90;;;;;;5002903;28;19925;-79
2022/05/31 14:06:18;;;;;;;;;;;19.50;99.90;;;;;;4989747;28;19941;-79
2022/05/31 14:08:48;;;;;;;;;;;19.80;99.90;;;;;;5004687;28;19931;-80
2022/05/31 14:11:18;;;;;;;;;;;20.10;99.90;;;;;;5008456;28;20424;-79
2022/05/31 14:13:47;;;;;;;;;;;20.30;99.90;;;;;;5010181;28;20520;-79
2022/05/31 14:16:18;;;;;;;;;;;20.50;99.90;;;;;;5007445;28;19976;-79
2022/05/31 14:18:47;;;;;;;;;;;20.50;99.90;;;;;;4996569;28;20048;-79
2022/05/31 14:21:18;;;;;;;;;;;20.10;99.90;;;;;;5004585;28;19921;-79
2022/05/31 14:23:45;;;;;;;;;;;20.00;99.90;;;;;;5014624;28;19926;-79
2022/05/31 14:26:13;;;;;;;;;;;19.60;99.90;;;;;;5008585;28;20281;-78
2022/05/31 14:29:01;;;;;;;;;;;19.20;99.90;;;;;;5012499;28;19921;-78
2022/05/31 14:31:30;;;;;;;;;;;18.80;99.90;;;;;;5001760;28;19921;-78
2022/05/31 14:34:00;;;;;;;;;;;18.40;99.90;;;;;;5012626;28;20428;-79
2022/05/31 14:36:31;;;;;;;;;;;18.00;99.90;;;;;;5008490;28;19969;-78
2022/05/31 14:38:58;;;;;;;;;;;17.40;99.90;;;;;;5011219;28;20391;-79
2022/05/31 14:41:30;;;;;;;;;;;17.40;99.90;;;;;;5015054;28;19922;-79
2022/05/31 14:43:59;;;;;;;;;;;17.30;99.90;;;;;;5015620;28;19940;-79
2022/05/31 14:46:28;;;;;;;;;;;17.10;99.90;;;;;;5017779;28;19935;-79
2022/05/31 14:49:05;;;;;;;;;;;16.90;99.90;;;;;;5012604;28;19937;-79
2022/05/31 14:51:34;;;;;;;;;;;16.70;99.90;;;;;;5016941;28;19943;-81
2022/05/31 14:54:01;;;;;;;;;;;16.60;99.90;;;;;;5020619;28;19933;-78
2022/05/31 14:56:36;;;;;;;;;;;16.40;99.90;;;;;;5017647;28;19941;-79
2022/05/31 14:59:04;;;;;;;;;;;16.00;99.90;;;;;;5017506;28;20043;-79
2022/05/31 15:01:43;;;;;;;;;;;16.00;99.90;;;;;;5015625;28;19928;-80
2022/05/31 15:04:16;;;;;;;;;;;15.80;99.90;;;;;;5014393;28;20468;-78
2022/05/31 15:06:44;;;;;;;;;;;15.70;99.90;;;;;;5012724;28;19921;-77
2022/05/31 15:09:23;;;;;;;;;;;15.50;99.90;;;;;;5012528;28;19921;-77
2022/05/31 15:20:14;;;;;;;;;;;14.70;99.90;;;;;;5013925;28;19987;-79